Time;durP1;ratioP1;P1;durP2;ratioP2;P2;SDS_P1;SDS_P2;PMS_P1;PMS_P2;Temp;Humidity;BMP_temperature;BMP_pressure;BME280_temperature;BME280_humidity;BME280_pressure;Samples;Min_cycle;Max_cycle;Signal;HPM_P1;HPM_P2
2022/11/29 00:00:47;;;;;;;6.63;1.30;;;;;;;;;;5017446;28;20527;-68
2022/11/29 00:03:13;;;;;;;6.47;1.58;;;;;;;;;;5017629;28;20048;-68
2022/11/29 00:05:39;;;;;;;7.20;1.73;;;;;;;;;;5017337;28;20096;-68
2022/11/29 00:08:06;;;;;;;6.20;0.98;;;;;;;;;;5017037;28;20046;-68
2022/11/29 00:10:35;;;;;;;7.30;1.10;;;;;;;;;;5017207;28;20041;-68
2022/11/29 00:13:01;;;;;;;9.50;1.38;;;;;;;;;;5016967;28;20041;-68
2022/11/29 00:15:27;;;;;;;11.95;1.67;;;;;;;;;;5017079;28;20488;-68
2022/11/29 00:17:53;;;;;;;7.22;1.52;;;;;;;;;;5016815;28;20049;-68
2022/11/29 00:20:19;;;;;;;5.15;1.40;;;;;;;;;;5017357;28;20511;-68
2022/11/29 00:22:46;;;;;;;7.10;1.23;;;;;;;;;;5017223;28;20536;-67
2022/11/29 00:25:12;;;;;;;6.80;1.42;;;;;;;;;;5017522;28;20041;-68
2022/11/29 00:27:38;;;;;;;4.28;1.35;;;;;;;;;;5016962;28;20046;-68
2022/11/29 00:30:04;;;;;;;6.85;1.25;;;;;;;;;;5016823;28;20044;-68
2022/11/29 00:32:30;;;;;;;8.50;1.30;;;;;;;;;;5017125;28;20495;-68
2022/11/29 00:34:57;;;;;;;7.82;1.50;;;;;;;;;;5017106;28;20034;-68
2022/11/29 00:37:23;;;;;;;5.80;1.33;;;;;;;;;;5016632;28;20107;-68
2022/11/29 00:39:49;;;;;;;7.05;1.42;;;;;;;;;;5016285;28;20488;-68
2022/11/29 00:42:15;;;;;;;5.57;1.23;;;;;;;;;;5017134;28;20064;-68
2022/11/29 00:44:41;;;;;;;9.18;1.80;;;;;;;;;;5015552;28;20041;-68
2022/11/29 00:47:07;;;;;;;6.30;1.63;;;;;;;;;;5016520;28;20109;-68
2022/11/29 00:49:33;;;;;;;4.10;1.25;;;;;;;;;;5016585;28;20095;-68
2022/11/29 00:51:59;;;;;;;5.13;1.30;;;;;;;;;;5016688;28;20484;-68
2022/11/29 00:54:25;;;;;;;6.15;1.30;;;;;;;;;;5015927;28;20042;-68
2022/11/29 00:56:52;;;;;;;3.88;1.13;;;;;;;;;;5016584;28;20084;-68
2022/11/29 00:59:18;;;;;;;9.43;1.77;;;;;;;;;;5016317;28;20038;-68
2022/11/29 01:01:44;;;;;;;5.93;1.08;;;;;;;;;;5016455;28;20448;-68
2022/11/29 01:04:10;;;;;;;12.77;5.30;;;;;;;;;;5015689;28;20037;-68
2022/11/29 01:06:36;;;;;;;4.53;1.42;;;;;;;;;;5016276;28;20045;-68
2022/11/29 01:09:02;;;;;;;8.02;1.30;;;;;;;;;;5016365;28;20054;-68
2022/11/29 01:11:28;;;;;;;3.80;1.10;;;;;;;;;;5016182;28;20052;-68
2022/11/29 01:13:56;;;;;;;7.72;1.20;;;;;;;;;;5015524;28;20045;-68
2022/11/29 01:16:22;;;;;;;5.05;1.23;;;;;;;;;;5016300;28;20038;-67
2022/11/29 01:18:49;;;;;;;5.18;0.93;;;;;;;;;;5015966;28;20503;-68
2022/11/29 01:21:16;;;;;;;5.25;1.17;;;;;;;;;;5015823;28;20050;-68
2022/11/29 01:23:43;;;;;;;5.68;1.27;;;;;;;;;;5015349;28;20038;-68
2022/11/29 01:26:11;;;;;;;6.00;1.10;;;;;;;;;;5016113;28;20073;-68
2022/11/29 01:28:39;;;;;;;5.65;1.38;;;;;;;;;;5015220;28;20550;-68
2022/11/29 01:31:09;;;;;;;5.15;1.00;;;;;;;;;;5015755;28;20045;-68
2022/11/29 01:33:36;;;;;;;5.15;0.93;;;;;;;;;;5015512;28;20030;-68
2022/11/29 01:36:02;;;;;;;5.60;0.88;;;;;;;;;;5015423;28;20134;-68
2022/11/29 01:38:29;;;;;;;3.33;0.90;;;;;;;;;;5015456;28;20052;-68
2022/11/29 01:40:58;;;;;;;9.60;1.23;;;;;;;;;;5015005;28;20038;-68
2022/11/29 01:43:24;;;;;;;5.30;1.00;;;;;;;;;;5015483;28;20117;-68
2022/11/29 01:45:50;;;;;;;6.22;1.23;;;;;;;;;;5015183;28;20373;-68
2022/11/29 01:48:17;;;;;;;6.07;1.20;;;;;;;;;;5015045;28;20034;-68
2022/11/29 01:50:43;;;;;;;6.43;1.10;;;;;;;;;;5014316;28;20500;-68
2022/11/29 01:53:11;;;;;;;6.03;1.13;;;;;;;;;;5015005;28;20084;-68
2022/11/29 01:55:38;;;;;;;5.75;1.05;;;;;;;;;;5015628;28;20069;-68
2022/11/29 01:58:05;;;;;;;6.90;1.15;;;;;;;;;;5015507;28;20045;-68
2022/11/29 02:00:31;;;;;;;5.15;1.20;;;;;;;;;;5015562;28;20037;-68
2022/11/29 02:03:09;;;;;;;6.95;1.30;;;;;;;;;;5015239;28;20050;-68
2022/11/29 02:05:36;;;;;;;4.88;1.20;;;;;;;;;;5015094;28;20034;-68
2022/11/29 02:08:02;;;;;;;7.40;1.92;;;;;;;;;;5014907;28;20129;-68
2022/11/29 02:10:40;;;;;;;5.45;1.20;;;;;;;;;;5015857;28;20045;-68
2022/11/29 02:13:06;;;;;;;5.18;0.80;;;;;;;;;;5014951;28;20124;-68
2022/11/29 02:15:38;;;;;;;3.13;0.98;;;;;;;;;;5015034;28;20049;-68
2022/11/29 02:18:04;;;;;;;4.50;1.33;;;;;;;;;;5015280;28;20046;-67
2022/11/29 02:20:36;;;;;;;5.15;1.20;;;;;;;;;;5015062;28;20092;-68
2022/11/29 02:23:06;;;;;;;3.78;0.85;;;;;;;;;;5014749;28;20128;-68
2022/11/29 02:25:45;;;;;;;4.38;1.08;;;;;;;;;;5014792;28;20029;-68
2022/11/29 02:28:17;;;;;;;3.03;0.98;;;;;;;;;;5014517;28;20397;-68
2022/11/29 02:31:02;;;;;;;3.95;1.40;;;;;;;;;;5015029;28;20053;-68
2022/11/29 02:33:47;;;;;;;8.93;1.30;;;;;;;;;;5014396;28;20045;-68
2022/11/29 02:36:23;;;;;;;2.92;0.80;;;;;;;;;;5015142;28;20033;-68
2022/11/29 02:39:08;;;;;;;7.05;1.63;;;;;;;;;;5014418;28;20128;-68
2022/11/29 02:41:40;;;;;;;7.45;1.55;;;;;;;;;;5014771;28;20073;-68
2022/11/29 02:44:21;;;;;;;2.63;0.93;;;;;;;;;;5014511;28;20034;-68
2022/11/29 02:46:47;;;;;;;;;;;;;;;;;;5015122;28;20054;-68
2022/11/29 02:49:21;;;;;;;5.85;1.13;;;;;;;;;;5014942;28;19920;-68
2022/11/29 02:51:47;;;;;;;5.70;1.10;;;;;;;;;;5013964;28;20116;-68
2022/11/29 02:54:26;;;;;;;6.85;1.27;;;;;;;;;;5014462;28;20065;-68
2022/11/29 02:56:57;;;;;;;3.65;1.10;;;;;;;;;;5014062;28;20500;-68
2022/11/29 02:59:39;;;;;;;10.15;1.58;;;;;;;;;;5014534;28;20096;-68
2022/11/29 03:02:08;;;;;;;3.97;1.00;;;;;;;;;;5016215;28;20049;-68
2022/11/29 03:04:54;;;;;;;5.10;1.00;;;;;;;;;;5018115;28;20064;-68
2022/11/29 03:07:25;;;;;;;6.97;1.23;;;;;;;;;;5018094;28;20046;-68
2022/11/29 03:09:57;;;;;;;6.10;1.10;;;;;;;;;;5018693;28;20077;-68
2022/11/29 03:12:45;;;;;;;4.85;1.25;;;;;;;;;;5018331;28;20045;-68
2022/11/29 03:15:29;;;;;;;6.90;1.20;;;;;;;;;;5018108;28;20037;-67
2022/11/29 03:18:14;;;;;;;6.07;1.67;;;;;;;;;;5017959;28;20048;-68
2022/11/29 03:20:49;;;;;;;7.65;1.27;;;;;;;;;;5018161;28;20041;-68
2022/11/29 03:23:22;;;;;;;5.45;1.30;;;;;;;;;;5017182;28;20650;-68
2022/11/29 03:25:54;;;;;;;6.75;1.50;;;;;;;;;;5017741;28;20496;-68
2022/11/29 03:28:24;;;;;;;5.82;1.40;;;;;;;;;;5017577;28;20420;-68
2022/11/29 03:30:58;;;;;;;6.63;1.30;;;;;;;;;;5018063;28;20048;-68
2022/11/29 03:33:36;;;;;;;5.95;1.02;;;;;;;;;;5017884;28;20113;-68
2022/11/29 03:36:20;;;;;;;10.40;1.60;;;;;;;;;;5017886;28;20507;-68
2022/11/29 03:38:46;;;;;;;8.60;1.10;;;;;;;;;;5017737;28;20038;-68
2022/11/29 03:41:18;;;;;;;3.25;0.77;;;;;;;;;;5017285;28;20044;-68
2022/11/29 03:44:00;;;;;;;4.85;1.10;;;;;;;;;;5017577;28;20041;-68
2022/11/29 03:46:46;;;;;;;5.13;0.93;;;;;;;;;;5017704;28;20049;-68
2022/11/29 03:49:18;;;;;;;8.02;1.50;;;;;;;;;;5017949;28;20069;-67
2022/11/29 03:51:59;;;;;;;4.72;1.10;;;;;;;;;;5017464;28;20049;-68
2022/11/29 03:54:28;;;;;;;7.00;1.33;;;;;;;;;;5017749;28;20092;-68
2022/11/29 03:56:54;;;;;;;5.25;1.20;;;;;;;;;;5017542;28;20041;-68
2022/11/29 03:59:26;;;;;;;3.72;1.30;;;;;;;;;;5017383;28;20045;-67
2022/11/29 04:02:03;;;;;;;9.23;1.20;;;;;;;;;;5018228;28;20113;-68
2022/11/29 04:04:36;;;;;;;8.38;1.42;;;;;;;;;;5017372;28;20568;-68
2022/11/29 04:07:08;;;;;;;7.03;1.25;;;;;;;;;;5017333;28;20400;-68
2022/11/29 04:09:43;;;;;;;4.50;0.93;;;;;;;;;;5017289;28;20044;-68
2022/11/29 04:12:25;;;;;;;6.45;1.23;;;;;;;;;;5017808;28;20049;-68
2022/11/29 04:14:54;;;;;;;7.60;1.35;;;;;;;;;;5016891;28;20038;-68
2022/11/29 04:17:26;;;;;;;5.05;1.20;;;;;;;;;;5017114;28;20041;-68
2022/11/29 04:20:04;;;;;;;8.95;1.35;;;;;;;;;;5017374;28;20153;-68
2022/11/29 04:22:49;;;;;;;8.40;1.70;;;;;;;;;;5017133;28;20045;-68
2022/11/29 04:25:39;;;;;;;6.93;1.80;;;;;;;;;;5017308;28;20147;-68
2022/11/29 04:28:25;;;;;;;4.70;1.20;;;;;;;;;;5016875;28;20480;-68
2022/11/29 04:30:51;;;;;;;4.40;1.00;;;;;;;;;;5016968;28;20500;-68
2022/11/29 04:33:26;;;;;;;7.47;1.10;;;;;;;;;;5017022;28;20037;-68
2022/11/29 04:35:55;;;;;;;6.22;1.63;;;;;;;;;;5016925;28;20072;-68
2022/11/29 04:38:21;;;;;;;5.50;1.35;;;;;;;;;;5016461;28;20041;-68
2022/11/29 04:40:51;;;;;;;6.38;1.20;;;;;;;;;;5016958;28;20099;-68
2022/11/29 04:43:25;;;;;;;8.95;1.77;;;;;;;;;;5016868;28;20104;-68
2022/11/29 04:45:54;;;;;;;9.60;1.50;;;;;;;;;;5017206;28;20121;-68
2022/11/29 04:48:20;;;;;;;5.40;0.93;;;;;;;;;;5016526;28;20045;-68
2022/11/29 04:50:50;;;;;;;6.88;1.90;;;;;;;;;;5016633;28;20127;-68
2022/11/29 04:53:34;;;;;;;7.97;1.27;;;;;;;;;;5015723;28;20065;-68
2022/11/29 04:56:07;;;;;;;6.15;1.00;;;;;;;;;;5016141;28;20180;-68
2022/11/29 04:58:37;;;;;;;5.50;1.15;;;;;;;;;;5015814;28;20053;-68
2022/11/29 05:01:22;;;;;;;6.95;1.40;;;;;;;;;;5034061;28;20530;-68
2022/11/29 05:03:56;;;;;;;8.15;1.25;;;;;;;;;;5035506;28;20044;-69
2022/11/29 05:06:41;;;;;;;4.43;1.10;;;;;;;;;;5036198;28;20041;-69
2022/11/29 05:09:30;;;;;;;7.40;1.17;;;;;;;;;;5026888;28;20175;-69
2022/11/29 05:12:15;;;;;;;5.32;0.95;;;;;;;;;;5016348;28;20042;-69
2022/11/29 05:14:51;;;;;;;11.70;1.73;;;;;;;;;;5015672;28;20077;-69
2022/11/29 05:17:17;;;;;;;6.88;1.40;;;;;;;;;;5015754;28;20053;-69
2022/11/29 05:20:04;;;;;;;8.60;1.48;;;;;;;;;;5015909;28;20042;-69
2022/11/29 05:22:49;;;;;;;7.40;1.40;;;;;;;;;;5015594;28;20072;-69
2022/11/29 05:25:31;;;;;;;10.18;1.60;;;;;;;;;;5015539;28;20116;-69
2022/11/29 05:28:04;;;;;;;10.35;1.92;;;;;;;;;;5015920;28;20193;-69
2022/11/29 05:30:54;;;;;;;8.20;1.52;;;;;;;;;;5015132;28;20524;-69
2022/11/29 05:33:20;;;;;;;7.35;1.85;;;;;;;;;;5007602;28;20073;-69
2022/11/29 05:36:10;;;;;;;6.20;1.38;;;;;;;;;;5015774;28;20044;-68
2022/11/29 05:38:52;;;;;;;8.68;1.73;;;;;;;;;;5014950;28;20037;-69
2022/11/29 05:41:21;;;;;;;8.57;1.45;;;;;;;;;;5013672;28;20088;-69
2022/11/29 05:43:59;;;;;;;9.00;1.27;;;;;;;;;;5014955;28;20041;-69
2022/11/29 05:46:43;;;;;;;9.73;1.85;;;;;;;;;;5013082;28;20044;-69
2022/11/29 05:49:15;;;;;;;8.88;1.65;;;;;;;;;;5013562;28;20053;-68
2022/11/29 05:51:46;;;;;;;9.82;1.65;;;;;;;;;;5013825;28;20042;-69
2022/11/29 05:54:12;;;;;;;6.80;1.58;;;;;;;;;;5014889;28;20057;-68
2022/11/29 05:56:47;;;;;;;7.25;1.90;;;;;;;;;;5015119;28;20060;-68
2022/11/29 05:59:18;;;;;;;7.60;2.13;;;;;;;;;;5014200;28;20042;-68
2022/11/29 06:01:50;;;;;;;9.68;1.60;;;;;;;;;;5013849;28;20041;-68
2022/11/29 06:04:32;;;;;;;6.78;1.60;;;;;;;;;;5014857;28;20092;-68
2022/11/29 06:07:17;;;;;;;9.88;1.50;;;;;;;;;;5014838;28;20049;-68
2022/11/29 06:09:48;;;;;;;6.32;1.33;;;;;;;;;;5015109;28;20038;-68
2022/11/29 06:12:22;;;;;;;6.68;1.85;;;;;;;;;;5023721;28;20046;-68
2022/11/29 06:14:57;;;;;;;5.80;1.50;;;;;;;;;;5035311;28;20048;-68
2022/11/29 06:17:24;;;;;;;6.05;1.50;;;;;;;;;;5034698;28;20049;-68
2022/11/29 06:20:25;;;;;;;6.97;1.40;;;;;;;;;;5031451;28;20037;-67
2022/11/29 06:22:51;;;;;;;5.63;1.77;;;;;;;;;;5002782;28;20038;-68
2022/11/29 06:25:30;;;;;;;11.90;1.92;;;;;;;;;;5020595;28;20046;-66
2022/11/29 06:28:08;;;;;;;5.32;1.77;;;;;;;;;;4996636;28;20511;-68
2022/11/29 06:30:49;;;;;;;9.73;1.50;;;;;;;;;;4994121;28;20038;-68
2022/11/29 06:33:22;;;;;;;12.18;1.95;;;;;;;;;;5013183;28;20046;-68
2022/11/29 06:36:00;;;;;;;7.03;1.70;;;;;;;;;;5014453;28;20053;-68
2022/11/29 06:38:28;;;;;;;14.85;1.88;;;;;;;;;;5014428;28;20042;-68
2022/11/29 06:40:55;;;;;;;4.75;1.27;;;;;;;;;;5014749;28;20068;-68
2022/11/29 06:43:22;;;;;;;9.70;1.80;;;;;;;;;;5013565;28;20038;-68
2022/11/29 06:45:52;;;;;;;6.88;1.67;;;;;;;;;;5013786;28;20042;-68
2022/11/29 06:48:26;;;;;;;6.78;1.80;;;;;;;;;;5014242;28;20100;-68
2022/11/29 06:51:27;;;;;;;14.52;2.22;;;;;;;;;;5014468;28;20053;-68
2022/11/29 06:53:58;;;;;;;11.85;1.85;;;;;;;;;;4953667;29;20055;-68
2022/11/29 06:56:36;;;;;;;9.77;1.92;;;;;;;;;;5003977;28;20049;-68
2022/11/29 06:59:03;;;;;;;12.68;1.85;;;;;;;;;;5010565;28;20566;-68
2022/11/29 07:01:47;;;;;;;8.70;2.33;;;;;;;;;;4995124;28;20053;-68
2022/11/29 07:04:32;;;;;;;11.32;2.10;;;;;;;;;;4994918;28;20085;-68
2022/11/29 07:06:58;;;;;;;10.07;2.60;;;;;;;;;;5004448;28;20042;-68
2022/11/29 07:09:33;;;;;;;7.47;1.42;;;;;;;;;;5014462;28;20485;-68
2022/11/29 07:11:59;;;;;;;9.70;2.40;;;;;;;;;;5011078;28;20034;-68
2022/11/29 07:14:26;;;;;;;15.30;2.03;;;;;;;;;;5011257;28;20034;-69
2022/11/29 07:17:01;;;;;;;7.38;1.65;;;;;;;;;;5011590;28;20041;-68
2022/11/29 07:19:37;;;;;;;7.63;2.38;;;;;;;;;;5009714;28;20709;-68
2022/11/29 07:22:15;;;;;;;6.13;1.95;;;;;;;;;;5004974;28;20550;-69
2022/11/29 07:24:52;;;;;;;6.05;2.10;;;;;;;;;;4993747;28;20049;-68
2022/11/29 07:27:20;;;;;;;6.72;1.70;;;;;;;;;;4998637;28;20058;-69
2022/11/29 07:30:04;;;;;;;8.68;1.90;;;;;;;;;;5014148;28;20038;-69
2022/11/29 07:32:39;;;;;;;9.82;2.30;;;;;;;;;;5014182;28;20049;-68
2022/11/29 07:35:05;;;;;;;7.90;2.20;;;;;;;;;;4999854;28;20164;-70
2022/11/29 07:37:36;;;;;;;11.95;2.13;;;;;;;;;;4994056;28;20441;-70
2022/11/29 07:40:02;;;;;;;8.70;2.03;;;;;;;;;;4994376;28;20134;-70
2022/11/29 07:42:51;;;;;;;11.38;2.58;;;;;;;;;;4994290;28;20038;-70
2022/11/29 07:45:18;;;;;;;5.68;2.10;;;;;;;;;;4988484;28;20501;-70
2022/11/29 07:47:45;;;;;;;11.10;2.40;;;;;;;;;;4994437;28;20045;-71
2022/11/29 07:50:11;;;;;;;9.88;3.03;;;;;;;;;;4997408;28;20049;-70
2022/11/29 07:52:37;;;;;;;12.85;2.63;;;;;;;;;;4997729;28;20528;-71
2022/11/29 07:55:04;;;;;;;8.63;2.67;;;;;;;;;;4998296;28;20042;-71
2022/11/29 07:57:30;;;;;;;10.70;2.92;;;;;;;;;;4998348;28;20038;-71
2022/11/29 07:59:56;;;;;;;10.40;2.92;;;;;;;;;;4997946;28;20034;-71
2022/11/29 08:02:26;;;;;;;11.38;2.25;;;;;;;;;;4997747;28;20042;-70
2022/11/29 08:04:52;;;;;;;15.40;3.22;;;;;;;;;;4998171;28;20046;-71
2022/11/29 08:07:18;;;;;;;11.38;2.80;;;;;;;;;;4998397;28;20050;-71
2022/11/29 08:09:44;;;;;;;11.15;1.92;;;;;;;;;;4997743;28;20108;-71
2022/11/29 08:12:10;;;;;;;16.08;3.25;;;;;;;;;;4998116;28;20046;-71
2022/11/29 08:14:36;;;;;;;9.90;2.47;;;;;;;;;;4997947;28;20073;-71
2022/11/29 08:17:03;;;;;;;11.93;2.83;;;;;;;;;;4997772;28;20393;-71
2022/11/29 08:19:29;;;;;;;10.82;2.50;;;;;;;;;;4997910;28;20042;-71
2022/11/29 08:21:55;;;;;;;15.05;2.30;;;;;;;;;;4997930;28;20493;-71
2022/11/29 08:24:21;;;;;;;11.25;2.90;;;;;;;;;;4997505;28;20073;-71
2022/11/29 08:26:47;;;;;;;12.55;1.63;;;;;;;;;;4997734;28;20062;-71
2022/11/29 08:29:14;;;;;;;13.30;2.75;;;;;;;;;;4998210;28;20043;-71
2022/11/29 08:31:40;;;;;;;8.10;2.28;;;;;;;;;;4997846;28;20038;-71
2022/11/29 08:34:07;;;;;;;11.50;2.45;;;;;;;;;;4997906;28;20042;-71
2022/11/29 08:36:33;;;;;;;11.40;2.33;;;;;;;;;;4997414;28;20062;-71
2022/11/29 08:39:01;;;;;;;12.05;2.55;;;;;;;;;;4997491;28;20046;-71
2022/11/29 08:41:28;;;;;;;8.43;1.70;;;;;;;;;;4997559;28;20121;-71
2022/11/29 08:43:54;;;;;;;12.70;2.35;;;;;;;;;;4997187;28;20046;-71
2022/11/29 08:46:20;;;;;;;13.88;2.70;;;;;;;;;;4997418;28;20038;-71
2022/11/29 08:48:47;;;;;;;11.93;2.97;;;;;;;;;;4997301;28;20137;-70
2022/11/29 08:51:13;;;;;;;16.38;5.60;;;;;;;;;;4997526;28;20125;-71
2022/11/29 08:53:40;;;;;;;13.20;5.13;;;;;;;;;;4997683;28;20528;-71
2022/11/29 08:56:07;;;;;;;19.20;5.65;;;;;;;;;;4996932;28;20043;-71
2022/11/29 08:58:33;;;;;;;27.98;11.10;;;;;;;;;;4996788;28;20042;-71
2022/11/29 09:00:59;;;;;;;23.48;9.20;;;;;;;;;;4996502;28;20482;-71
2022/11/29 09:06:11;;;;;;;12.30;2.05;;;;;;;;;;4996491;28;20061;-71
2022/11/29 09:08:38;;;;;;;9.60;2.20;;;;;;;;;;4996756;28;20137;-71
2022/11/29 09:11:08;;;;;;;10.13;2.22;;;;;;;;;;4997328;28;20485;-71
2022/11/29 09:13:34;;;;;;;5.72;1.45;;;;;;;;;;4997418;28;20042;-71
2022/11/29 09:16:05;;;;;;;9.70;1.50;;;;;;;;;;4996961;28;20112;-71
2022/11/29 09:18:31;;;;;;;12.63;3.35;;;;;;;;;;4996819;28;20050;-71
2022/11/29 09:20:58;;;;;;;11.32;1.83;;;;;;;;;;4996758;28;20042;-71
2022/11/29 09:23:24;;;;;;;8.73;2.38;;;;;;;;;;4995955;28;20039;-71
2022/11/29 09:25:50;;;;;;;14.80;3.28;;;;;;;;;;4996356;28;20072;-71
2022/11/29 09:28:16;;;;;;;12.38;2.00;;;;;;;;;;4996525;28;20046;-70
2022/11/29 09:30:42;;;;;;;16.77;4.80;;;;;;;;;;4996538;28;20039;-71
2022/11/29 09:33:08;;;;;;;9.20;1.75;;;;;;;;;;4996783;28;20078;-71
2022/11/29 09:35:34;;;;;;;5.25;1.73;;;;;;;;;;4996154;28;20125;-71
2022/11/29 09:38:01;;;;;;;5.63;1.33;;;;;;;;;;4996492;28;20492;-71
2022/11/29 09:40:30;;;;;;;8.82;2.00;;;;;;;;;;4996074;28;20042;-71
2022/11/29 09:42:56;;;;;;;8.50;1.98;;;;;;;;;;4995950;28;20046;-71
2022/11/29 09:45:29;;;;;;;6.15;1.17;;;;;;;;;;4996305;28;20038;-71
2022/11/29 09:48:10;;;;;;;11.32;1.95;;;;;;;;;;4996134;28;20457;-71
2022/11/29 09:50:41;;;;;;;8.77;1.63;;;;;;;;;;4996438;28;20042;-71
2022/11/29 09:53:33;;;;;;;4.35;1.67;;;;;;;;;;4995856;28;20050;-71
2022/11/29 09:55:59;;;;;;;6.18;1.80;;;;;;;;;;4996289;28;20122;-71
2022/11/29 09:58:28;;;;;;;7.88;1.95;;;;;;;;;;4995835;28;20404;-71
2022/11/29 10:01:00;;;;;;;7.03;1.42;;;;;;;;;;4995723;28;20042;-71
2022/11/29 10:03:29;;;;;;;9.77;3.17;;;;;;;;;;4996010;28;20405;-71
2022/11/29 10:05:58;;;;;;;7.72;2.00;;;;;;;;;;4995341;28;20034;-71
2022/11/29 10:08:27;;;;;;;8.88;1.63;;;;;;;;;;4995925;28;20057;-71
2022/11/29 10:10:57;;;;;;;5.28;1.55;;;;;;;;;;4994826;28;20042;-71
2022/11/29 10:13:31;;;;;;;6.20;1.63;;;;;;;;;;4994974;28;20097;-71
2022/11/29 10:15:59;;;;;;;7.70;1.45;;;;;;;;;;4995484;28;20038;-71
2022/11/29 10:18:31;;;;;;;4.68;1.38;;;;;;;;;;4995476;28;20041;-71
2022/11/29 10:21:01;;;;;;;8.93;2.47;;;;;;;;;;4995158;28;20046;-71
2022/11/29 10:23:28;;;;;;;;;;;;;;;;;;4995774;28;20057;-71
2022/11/29 10:25:55;;;;;;;10.77;2.00;;;;;;;;;;4995499;28;19917;-71
2022/11/29 10:28:24;;;;;;;10.25;2.28;;;;;;;;;;4995259;28;20519;-71
2022/11/29 10:30:52;;;;;;;9.43;2.17;;;;;;;;;;4995308;28;20042;-71
2022/11/29 10:33:25;;;;;;;4.70;1.60;;;;;;;;;;4996039;28;20042;-71
2022/11/29 10:35:55;;;;;;;8.77;1.55;;;;;;;;;;4995157;28;20070;-71
2022/11/29 10:38:22;;;;;;;10.95;1.73;;;;;;;;;;4994873;28;20053;-71
2022/11/29 10:40:50;;;;;;;9.82;1.65;;;;;;;;;;4995092;28;20105;-71
2022/11/29 10:43:16;;;;;;;10.55;1.27;;;;;;;;;;4995482;28;20038;-71
2022/11/29 10:45:44;;;;;;;6.00;1.20;;;;;;;;;;4995627;28;20038;-71
2022/11/29 10:48:16;;;;;;;11.15;1.75;;;;;;;;;;4995017;28;20189;-71
2022/11/29 10:50:43;;;;;;;4.85;0.98;;;;;;;;;;4995751;28;20061;-71
2022/11/29 10:53:11;;;;;;;8.57;1.38;;;;;;;;;;4994595;28;20069;-71
2022/11/29 10:55:46;;;;;;;5.55;1.40;;;;;;;;;;4995284;28;20130;-71
2022/11/29 10:58:12;;;;;;;6.15;1.13;;;;;;;;;;4995596;28;20045;-71
2022/11/29 11:00:58;;;;;;;6.90;1.42;;;;;;;;;;4994702;28;20038;-71
2022/11/29 11:03:48;;;;;;;6.80;1.67;;;;;;;;;;4995027;28;20564;-71
2022/11/29 11:06:18;;;;;;;4.97;1.48;;;;;;;;;;4994868;28;20051;-71
2022/11/29 11:08:49;;;;;;;6.57;1.90;;;;;;;;;;4995116;28;20104;-71
2022/11/29 11:11:23;;;;;;;5.43;1.13;;;;;;;;;;4995235;28;20050;-71
2022/11/29 11:13:56;;;;;;;11.45;2.03;;;;;;;;;;4995961;28;20130;-71
2022/11/29 11:16:25;;;;;;;6.35;1.33;;;;;;;;;;5010702;28;20115;-70
2022/11/29 11:18:51;;;;;;;6.70;3.22;;;;;;;;;;5013404;28;20516;-70
2022/11/29 11:21:18;;;;;;;5.97;2.10;;;;;;;;;;5014228;28;20504;-71
2022/11/29 11:23:47;;;;;;;43.15;22.30;;;;;;;;;;4991061;28;20231;-71
2022/11/29 11:26:14;;;;;;;195.65;122.28;;;;;;;;;;5012893;28;20412;-72
2022/11/29 11:28:48;;;;;;;29.77;18.10;;;;;;;;;;5016154;28;20052;-72
2022/11/29 11:31:14;;;;;;;13.98;5.38;;;;;;;;;;5016447;28;20042;-72
2022/11/29 11:33:41;;;;;;;28.08;16.63;;;;;;;;;;5015766;28;20034;-70
2022/11/29 11:36:19;;;;;;;47.75;35.70;;;;;;;;;;5016870;28;20120;-69
2022/11/29 11:38:50;;;;;;;47.58;33.25;;;;;;;;;;5017735;28;20033;-71
2022/11/29 11:41:16;;;;;;;;;;;;;;;;;;5015800;28;20046;-70
2022/11/29 11:43:49;;;;;;;5.05;1.80;;;;;;;;;;5016334;28;20280;-71
2022/11/29 11:46:15;;;;;;;48.75;32.10;;;;;;;;;;5009665;28;20121;-70
2022/11/29 11:48:41;;;;;;;64.55;42.28;;;;;;;;;;5013441;28;20048;-70
2022/11/29 11:51:18;;;;;;;37.90;22.45;;;;;;;;;;5008378;28;20073;-70
2022/11/29 11:53:49;;;;;;;11.68;2.90;;;;;;;;;;5016846;28;20068;-71
2022/11/29 11:56:15;;;;;;;;;;;;;;;;;;5013016;28;20042;-72
2022/11/29 11:58:55;;;;;;;100.25;81.28;;;;;;;;;;5014708;28;19909;-71
2022/11/29 12:01:37;;;;;;;13.73;6.68;;;;;;;;;;5007687;28;20053;-71
2022/11/29 12:04:03;;;;;;;11.93;6.80;;;;;;;;;;5008317;28;20493;-72
2022/11/29 12:06:30;;;;;;;16.02;6.55;;;;;;;;;;5001345;28;20042;-69
2022/11/29 12:09:10;;;;;;;7.22;2.55;;;;;;;;;;5009914;28;20085;-70
2022/11/29 12:11:46;;;;;;;8.32;2.80;;;;;;;;;;5010695;28;20046;-68
2022/11/29 12:14:35;;;;;;;15.15;9.52;;;;;;;;;;4994425;28;20669;-68
2022/11/29 12:17:05;;;;;;;15.82;6.20;;;;;;;;;;4999372;28;20508;-68
2022/11/29 12:19:38;;;;;;;10.45;4.65;;;;;;;;;;5014358;28;20050;-67
2022/11/29 12:22:07;;;;;;;76.15;55.55;;;;;;;;;;5007284;28;20049;-68
2022/11/29 12:24:46;;;;;;;16.52;8.80;;;;;;;;;;5013677;28;20045;-70
2022/11/29 12:27:14;;;;;;;7.65;1.88;;;;;;;;;;5014181;28;20125;-71
2022/11/29 12:29:40;;;;;;;5.35;2.80;;;;;;;;;;5015360;28;20034;-71
2022/11/29 12:32:27;;;;;;;6.72;2.83;;;;;;;;;;5014804;28;20505;-70
2022/11/29 12:35:12;;;;;;;88.95;58.05;;;;;;;;;;5016524;28;20042;-70
2022/11/29 12:37:51;;;;;;;14.52;6.30;;;;;;;;;;5016465;28;20057;-68
2022/11/29 12:40:23;;;;;;;78.57;49.75;;;;;;;;;;5016861;28;20498;-68
2022/11/29 12:43:14;;;;;;;44.35;29.05;;;;;;;;;;5014757;28;20057;-66
2022/11/29 12:46:05;;;;;;;8.25;2.53;;;;;;;;;;5016031;28;20038;-67
2022/11/29 12:48:38;;;;;;;6.05;1.60;;;;;;;;;;5014717;28;20069;-67
2022/11/29 12:51:04;;;;;;;10.93;3.17;;;;;;;;;;5015715;28;20057;-69
2022/11/29 12:53:45;;;;;;;5.88;1.67;;;;;;;;;;5012836;28;20089;-68
2022/11/29 12:56:31;;;;;;;5.07;1.63;;;;;;;;;;5014327;28;20049;-69
2022/11/29 12:59:10;;;;;;;19.33;12.05;;;;;;;;;;5014990;28;20107;-68
2022/11/29 13:02:00;;;;;;;48.33;30.20;;;;;;;;;;5015328;28;20120;-68
2022/11/29 13:04:35;;;;;;;3.47;1.52;;;;;;;;;;5015979;28;20053;-68
2022/11/29 13:07:01;;;;;;;6.28;2.00;;;;;;;;;;5012611;28;20050;-69
2022/11/29 13:09:46;;;;;;;17.05;10.48;;;;;;;;;;5015012;28;20520;-68
2022/11/29 13:12:19;;;;;;;16.40;13.63;;;;;;;;;;5013057;28;20046;-68
2022/11/29 13:14:45;;;;;;;89.65;79.15;;;;;;;;;;5014994;28;20046;-69
2022/11/29 13:17:23;;;;;;;7.35;2.58;;;;;;;;;;5015177;28;20052;-67
2022/11/29 13:19:53;;;;;;;18.90;17.20;;;;;;;;;;5015957;28;20124;-68
2022/11/29 13:22:31;;;;;;;42.45;38.20;;;;;;;;;;5015934;28;20049;-67
2022/11/29 13:25:02;;;;;;;4.70;1.77;;;;;;;;;;5016000;28;20030;-68
2022/11/29 13:27:32;;;;;;;7.65;2.55;;;;;;;;;;5015826;28;20112;-68
2022/11/29 13:30:01;;;;;;;4.80;1.23;;;;;;;;;;5015963;28;20049;-68
2022/11/29 13:32:27;;;;;;;3.97;1.80;;;;;;;;;;5015938;28;20042;-68
2022/11/29 13:34:55;;;;;;;4.40;2.03;;;;;;;;;;5016085;28;20045;-68
2022/11/29 13:37:50;;;;;;;7.38;1.83;;;;;;;;;;5015231;28;20121;-67
2022/11/29 13:40:20;;;;;;;3.47;1.50;;;;;;;;;;5011620;28;20037;-67
2022/11/29 13:42:55;;;;;;;7.45;1.60;;;;;;;;;;5034887;28;20116;-68
2022/11/29 13:45:23;;;;;;;4.95;0.93;;;;;;;;;;5034922;28;20163;-68
2022/11/29 13:47:50;;;;;;;8.52;2.33;;;;;;;;;;5033770;28;20044;-68
2022/11/29 13:50:35;;;;;;;7.57;1.92;;;;;;;;;;5034703;28;20041;-68
2022/11/29 13:53:02;;;;;;;5.72;1.60;;;;;;;;;;5034582;28;20061;-68
2022/11/29 13:55:30;;;;;;;6.38;1.65;;;;;;;;;;5035084;28;20044;-69
2022/11/29 13:57:56;;;;;;;5.78;1.40;;;;;;;;;;5035175;28;20044;-68
2022/11/29 14:00:41;;;;;;;5.03;1.58;;;;;;;;;;5034977;28;20029;-68
2022/11/29 14:03:20;;;;;;;3.17;1.58;;;;;;;;;;5035146;28;20046;-68
2022/11/29 14:05:48;;;;;;;5.55;1.30;;;;;;;;;;5035481;28;20037;-68
2022/11/29 14:08:29;;;;;;;12.02;8.25;;;;;;;;;;5034685;28;20045;-68
2022/11/29 14:10:58;;;;;;;7.75;4.95;;;;;;;;;;5034768;28;20033;-68
2022/11/29 14:13:29;;;;;;;4.68;2.42;;;;;;;;;;5034888;28;20042;-68
2022/11/29 14:15:57;;;;;;;5.03;2.38;;;;;;;;;;5035002;28;20037;-68
2022/11/29 14:18:41;;;;;;;4.70;2.05;;;;;;;;;;5034849;28;20056;-68
2022/11/29 14:21:07;;;;;;;5.97;1.50;;;;;;;;;;5034336;28;20041;-69
2022/11/29 14:23:39;;;;;;;9.65;5.63;;;;;;;;;;5034127;28;20127;-69
2022/11/29 14:26:05;;;;;;;33.47;24.98;;;;;;;;;;5034346;28;20124;-69
2022/11/29 14:28:31;;;;;;;6.47;2.20;;;;;;;;;;5034196;28;20076;-69
2022/11/29 14:31:01;;;;;;;39.63;22.27;;;;;;;;;;5034574;28;20041;-69
2022/11/29 14:33:46;;;;;;;13.67;8.30;;;;;;;;;;5034775;28;20045;-69
2022/11/29 14:36:27;;;;;;;11.13;4.82;;;;;;;;;;5033200;28;20268;-69
2022/11/29 14:39:11;;;;;;;107.45;79.22;;;;;;;;;;5032631;28;20535;-69
2022/11/29 14:41:46;;;;;;;4.70;1.65;;;;;;;;;;5032875;28;20041;-69
2022/11/29 14:44:21;;;;;;;26.05;14.02;;;;;;;;;;5033632;28;20115;-69
2022/11/29 14:46:48;;;;;;;5.72;1.48;;;;;;;;;;5035003;28;20038;-69
2022/11/29 14:49:24;;;;;;;7.05;2.10;;;;;;;;;;5026200;28;20049;-69
2022/11/29 14:52:23;;;;;;;7.10;3.47;;;;;;;;;;5014392;28;20046;-69
2022/11/29 14:54:58;;;;;;;6.22;1.73;;;;;;;;;;4980424;28;20048;-69
2022/11/29 14:57:43;;;;;;;5.65;3.50;;;;;;;;;;5014753;28;20041;-69
2022/11/29 15:00:10;;;;;;;12.73;7.03;;;;;;;;;;5019197;28;20469;-69
2022/11/29 15:02:48;;;;;;;12.15;5.35;;;;;;;;;;5026552;28;20045;-69
2022/11/29 15:05:18;;;;;;;6.63;2.20;;;;;;;;;;5038487;28;20037;-69
2022/11/29 15:07:46;;;;;;;11.95;6.45;;;;;;;;;;5037724;28;20040;-69
2022/11/29 15:10:18;;;;;;;13.35;9.50;;;;;;;;;;5037931;28;20041;-69